sensor_id;sensor_type;location;lat;lon;timestamp;P1;durP1;ratioP1;P2;durP2;ratioP2
63016;SDS011;50274;45.640;11.756;2023-02-26T00:00:03;83.03;;;38.67;;
63016;SDS011;50274;45.640;11.756;2023-02-26T00:02:37;75.55;;;35.42;;
63016;SDS011;50274;45.640;11.756;2023-02-26T00:05:03;74.23;;;35.17;;
63016;SDS011;50274;45.640;11.756;2023-02-26T00:07:30;79.55;;;38.22;;
63016;SDS011;50274;45.640;11.756;2023-02-26T00:09:55;85.03;;;39.88;;
63016;SDS011;50274;45.640;11.756;2023-02-26T00:12:21;88.80;;;42.57;;
63016;SDS011;50274;45.640;11.756;2023-02-26T00:14:47;82.40;;;39.20;;
63016;SDS011;50274;45.640;11.756;2023-02-26T00:20:01;81.10;;;36.78;;
63016;SDS011;50274;45.640;11.756;2023-02-26T00:22:28;78.25;;;36.58;;
63016;SDS011;50274;45.640;11.756;2023-02-26T00:24:54;75.13;;;37.27;;
63016;SDS011;50274;45.640;11.756;2023-02-26T00:27:20;72.07;;;33.90;;
63016;SDS011;50274;45.640;11.756;2023-02-26T00:29:46;73.07;;;34.63;;
63016;SDS011;50274;45.640;11.756;2023-02-26T00:32:12;66.57;;;32.60;;
63016;SDS011;50274;45.640;11.756;2023-02-26T00:34:38;70.45;;;33.08;;
63016;SDS011;50274;45.640;11.756;2023-02-26T00:42:49;62.28;;;30.45;;
63016;SDS011;50274;45.640;11.756;2023-02-26T00:45:15;63.17;;;31.13;;
63016;SDS011;50274;45.640;11.756;2023-02-26T00:47:44;61.67;;;30.15;;
63016;SDS011;50274;45.640;11.756;2023-02-26T00:52:47;61.28;;;29.17;;
63016;SDS011;50274;45.640;11.756;2023-02-26T00:55:32;61.83;;;29.10;;
63016;SDS011;50274;45.640;11.756;2023-02-26T00:57:58;61.03;;;30.37;;
63016;SDS011;50274;45.640;11.756;2023-02-26T01:00:24;62.08;;;30.77;;
63016;SDS011;50274;45.640;11.756;2023-02-26T01:02:50;65.18;;;33.00;;
63016;SDS011;50274;45.640;11.756;2023-02-26T01:05:16;70.57;;;34.17;;
63016;SDS011;50274;45.640;11.756;2023-02-26T01:08:02;78.70;;;36.78;;
63016;SDS011;50274;45.640;11.756;2023-02-26T01:10:36;89.70;;;38.00;;
63016;SDS011;50274;45.640;11.756;2023-02-26T01:13:03;89.82;;;39.90;;
63016;SDS011;50274;45.640;11.756;2023-02-26T01:15:29;89.22;;;38.00;;
63016;SDS011;50274;45.640;11.756;2023-02-26T01:20:43;29.77;;;8.43;;
63016;SDS011;50274;45.640;11.756;2023-02-26T01:23:19;24.48;;;9.05;;
63016;SDS011;50274;45.640;11.756;2023-02-26T01:26:04;20.13;;;5.70;;
63016;SDS011;50274;45.640;11.756;2023-02-26T01:28:36;12.15;;;1.95;;
63016;SDS011;50274;45.640;11.756;2023-02-26T01:31:02;4.03;;;0.80;;
63016;SDS011;50274;45.640;11.756;2023-02-26T01:33:43;9.85;;;1.15;;
63016;SDS011;50274;45.640;11.756;2023-02-26T01:36:20;5.18;;;0.60;;
63016;SDS011;50274;45.640;11.756;2023-02-26T01:49:22;6.85;;;0.90;;
63016;SDS011;50274;45.640;11.756;2023-02-26T01:51:50;5.97;;;0.77;;
63016;SDS011;50274;45.640;11.756;2023-02-26T01:54:21;14.80;;;0.90;;
63016;SDS011;50274;45.640;11.756;2023-02-26T01:56:52;6.47;;;0.70;;
63016;SDS011;50274;45.640;11.756;2023-02-26T01:59:23;5.32;;;0.60;;
63016;SDS011;50274;45.640;11.756;2023-02-26T02:01:50;2.97;;;0.60;;
63016;SDS011;50274;45.640;11.756;2023-02-26T02:04:17;4.00;;;0.53;;
63016;SDS011;50274;45.640;11.756;2023-02-26T02:06:44;7.13;;;0.73;;
63016;SDS011;50274;45.640;11.756;2023-02-26T02:09:11;3.45;;;0.52;;
63016;SDS011;50274;45.640;11.756;2023-02-26T02:14:30;5.57;;;0.77;;
63016;SDS011;50274;45.640;11.756;2023-02-26T02:17:56;7.10;;;0.53;;
63016;SDS011;50274;45.640;11.756;2023-02-26T02:23:22;2.25;;;0.30;;
63016;SDS011;50274;45.640;11.756;2023-02-26T02:32:37;2.40;;;0.40;;
63016;SDS011;50274;45.640;11.756;2023-02-26T02:40:41;5.03;;;0.40;;
63016;SDS011;50274;45.640;11.756;2023-02-26T02:43:12;5.70;;;0.40;;
63016;SDS011;50274;45.640;11.756;2023-02-26T02:45:48;1.90;;;0.23;;
63016;SDS011;50274;45.640;11.756;2023-02-26T02:50:53;1.30;;;0.13;;
63016;SDS011;50274;45.640;11.756;2023-02-26T02:53:24;6.80;;;0.45;;
63016;SDS011;50274;45.640;11.756;2023-02-26T02:56:07;7.10;;;0.20;;
63016;SDS011;50274;45.640;11.756;2023-02-26T02:59:05;1.13;;;0.17;;
63016;SDS011;50274;45.640;11.756;2023-02-26T03:02:04;1.15;;;0.20;;
63016;SDS011;50274;45.640;11.756;2023-02-26T03:04:32;1.23;;;0.20;;
63016;SDS011;50274;45.640;11.756;2023-02-26T03:06:58;2.00;;;0.10;;
63016;SDS011;50274;45.640;11.756;2023-02-26T03:09:24;3.50;;;0.20;;
63016;SDS011;50274;45.640;11.756;2023-02-26T03:11:50;1.13;;;0.10;;
63016;SDS011;50274;45.640;11.756;2023-02-26T03:14:16;2.05;;;0.40;;
63016;SDS011;50274;45.640;11.756;2023-02-26T03:30:21;2.87;;;0.50;;
63016;SDS011;50274;45.640;11.756;2023-02-26T03:35:37;6.28;;;2.17;;
63016;SDS011;50274;45.640;11.756;2023-02-26T03:38:23;10.10;;;3.70;;
63016;SDS011;50274;45.640;11.756;2023-02-26T03:40:54;14.30;;;6.30;;
63016;SDS011;50274;45.640;11.756;2023-02-26T03:46:20;11.10;;;4.85;;
63016;SDS011;50274;45.640;11.756;2023-02-26T03:48:52;5.35;;;1.70;;
63016;SDS011;50274;45.640;11.756;2023-02-26T03:51:21;2.90;;;0.40;;
63016;SDS011;50274;45.640;11.756;2023-02-26T03:53:57;1.77;;;0.30;;
63016;SDS011;50274;45.640;11.756;2023-02-26T03:56:49;1.57;;;0.20;;
63016;SDS011;50274;45.640;11.756;2023-02-26T03:59:14;2.05;;;0.20;;
63016;SDS011;50274;45.640;11.756;2023-02-26T04:01:57;2.45;;;0.40;;
63016;SDS011;50274;45.640;11.756;2023-02-26T04:04:34;1.58;;;0.30;;
63016;SDS011;50274;45.640;11.756;2023-02-26T04:07:09;1.33;;;0.20;;
63016;SDS011;50274;45.640;11.756;2023-02-26T04:09:39;1.07;;;0.20;;
63016;SDS011;50274;45.640;11.756;2023-02-26T04:12:06;2.70;;;0.20;;
63016;SDS011;50274;45.640;11.756;2023-02-26T04:14:32;1.20;;;0.20;;
63016;SDS011;50274;45.640;11.756;2023-02-26T04:16:57;0.70;;;0.10;;
63016;SDS011;50274;45.640;11.756;2023-02-26T04:19:23;1.50;;;0.20;;
63016;SDS011;50274;45.640;11.756;2023-02-26T04:21:49;0.97;;;0.10;;
63016;SDS011;50274;45.640;11.756;2023-02-26T04:24:15;1.70;;;0.10;;
63016;SDS011;50274;45.640;11.756;2023-02-26T04:26:41;2.78;;;0.20;;
63016;SDS011;50274;45.640;11.756;2023-02-26T04:29:07;3.67;;;0.20;;
63016;SDS011;50274;45.640;11.756;2023-02-26T04:31:32;0.82;;;0.10;;
63016;SDS011;50274;45.640;11.756;2023-02-26T04:33:58;1.35;;;0.20;;
63016;SDS011;50274;45.640;11.756;2023-02-26T04:36:24;1.17;;;0.10;;
63016;SDS011;50274;45.640;11.756;2023-02-26T04:38:50;2.25;;;0.10;;
63016;SDS011;50274;45.640;11.756;2023-02-26T04:41:15;1.07;;;0.10;;
63016;SDS011;50274;45.640;11.756;2023-02-26T04:43:41;3.30;;;0.20;;
63016;SDS011;50274;45.640;11.756;2023-02-26T04:46:07;2.83;;;0.10;;
63016;SDS011;50274;45.640;11.756;2023-02-26T04:48:33;1.55;;;0.20;;
63016;SDS011;50274;45.640;11.756;2023-02-26T04:50:59;0.87;;;0.10;;
63016;SDS011;50274;45.640;11.756;2023-02-26T04:53:24;2.00;;;0.10;;
63016;SDS011;50274;45.640;11.756;2023-02-26T04:55:50;1.23;;;0.17;;
63016;SDS011;50274;45.640;11.756;2023-02-26T04:58:16;0.77;;;0.10;;
63016;SDS011;50274;45.640;11.756;2023-02-26T05:00:42;1.15;;;0.10;;
63016;SDS011;50274;45.640;11.756;2023-02-26T05:03:07;0.93;;;0.10;;
63016;SDS011;50274;45.640;11.756;2023-02-26T05:05:34;1.37;;;0.20;;
63016;SDS011;50274;45.640;11.756;2023-02-26T05:08:00;0.70;;;0.10;;
63016;SDS011;50274;45.640;11.756;2023-02-26T05:10:25;1.15;;;0.13;;
63016;SDS011;50274;45.640;11.756;2023-02-26T05:12:51;0.93;;;0.17;;
63016;SDS011;50274;45.640;11.756;2023-02-26T05:15:17;1.90;;;0.20;;
63016;SDS011;50274;45.640;11.756;2023-02-26T05:17:44;1.40;;;0.20;;
63016;SDS011;50274;45.640;11.756;2023-02-26T05:20:10;1.08;;;0.13;;
63016;SDS011;50274;45.640;11.756;2023-02-26T05:22:37;1.73;;;0.20;;
63016;SDS011;50274;45.640;11.756;2023-02-26T05:25:03;1.65;;;0.20;;
63016;SDS011;50274;45.640;11.756;2023-02-26T05:27:30;1.60;;;0.20;;
63016;SDS011;50274;45.640;11.756;2023-02-26T05:29:56;1.80;;;0.30;;
63016;SDS011;50274;45.640;11.756;2023-02-26T05:32:22;1.48;;;0.22;;
63016;SDS011;50274;45.640;11.756;2023-02-26T05:34:48;3.47;;;0.30;;
63016;SDS011;50274;45.640;11.756;2023-02-26T05:37:13;1.15;;;0.20;;
63016;SDS011;50274;45.640;11.756;2023-02-26T05:39:39;3.13;;;0.30;;
63016;SDS011;50274;45.640;11.756;2023-02-26T05:42:05;2.10;;;0.30;;
63016;SDS011;50274;45.640;11.756;2023-02-26T05:44:32;1.92;;;0.20;;
63016;SDS011;50274;45.640;11.756;2023-02-26T05:46:59;2.10;;;0.20;;
63016;SDS011;50274;45.640;11.756;2023-02-26T05:49:25;1.37;;;0.20;;
63016;SDS011;50274;45.640;11.756;2023-02-26T05:51:51;1.15;;;0.10;;
63016;SDS011;50274;45.640;11.756;2023-02-26T05:54:17;2.80;;;0.20;;
63016;SDS011;50274;45.640;11.756;2023-02-26T05:56:43;1.50;;;0.20;;
63016;SDS011;50274;45.640;11.756;2023-02-26T05:59:09;3.22;;;0.20;;
63016;SDS011;50274;45.640;11.756;2023-02-26T06:01:35;0.93;;;0.13;;
63016;SDS011;50274;45.640;11.756;2023-02-26T06:04:02;1.30;;;0.20;;
63016;SDS011;50274;45.640;11.756;2023-02-26T06:06:29;1.53;;;0.20;;
63016;SDS011;50274;45.640;11.756;2023-02-26T06:08:55;2.05;;;0.20;;
63016;SDS011;50274;45.640;11.756;2023-02-26T06:11:21;1.45;;;0.20;;
63016;SDS011;50274;45.640;11.756;2023-02-26T06:13:47;3.47;;;0.20;;
63016;SDS011;50274;45.640;11.756;2023-02-26T06:16:13;1.20;;;0.20;;
63016;SDS011;50274;45.640;11.756;2023-02-26T06:18:39;1.42;;;0.10;;
63016;SDS011;50274;45.640;11.756;2023-02-26T06:21:06;0.97;;;0.10;;
63016;SDS011;50274;45.640;11.756;2023-02-26T06:23:33;0.98;;;0.10;;
63016;SDS011;50274;45.640;11.756;2023-02-26T06:25:59;3.45;;;0.30;;
63016;SDS011;50274;45.640;11.756;2023-02-26T06:28:25;1.70;;;0.20;;
63016;SDS011;50274;45.640;11.756;2023-02-26T06:30:51;1.27;;;0.20;;
63016;SDS011;50274;45.640;11.756;2023-02-26T06:33:18;1.83;;;0.25;;
63016;SDS011;50274;45.640;11.756;2023-02-26T06:35:44;1.65;;;0.25;;
63016;SDS011;50274;45.640;11.756;2023-02-26T06:38:10;1.47;;;0.20;;
63016;SDS011;50274;45.640;11.756;2023-02-26T06:40:36;1.25;;;0.20;;
63016;SDS011;50274;45.640;11.756;2023-02-26T06:43:02;1.77;;;0.30;;
63016;SDS011;50274;45.640;11.756;2023-02-26T06:45:28;0.80;;;0.10;;
63016;SDS011;50274;45.640;11.756;2023-02-26T06:47:53;3.50;;;0.30;;
63016;SDS011;50274;45.640;11.756;2023-02-26T06:50:19;1.13;;;0.10;;
63016;SDS011;50274;45.640;11.756;2023-02-26T06:52:45;1.07;;;0.20;;
63016;SDS011;50274;45.640;11.756;2023-02-26T06:55:11;0.77;;;0.10;;
63016;SDS011;50274;45.640;11.756;2023-02-26T06:57:37;2.13;;;0.20;;
63016;SDS011;50274;45.640;11.756;2023-02-26T07:00:05;1.40;;;0.20;;
63016;SDS011;50274;45.640;11.756;2023-02-26T07:02:33;1.83;;;0.30;;
63016;SDS011;50274;45.640;11.756;2023-02-26T07:04:59;1.85;;;0.30;;
63016;SDS011;50274;45.640;11.756;2023-02-26T07:07:25;0.73;;;0.10;;
63016;SDS011;50274;45.640;11.756;2023-02-26T07:09:51;2.38;;;0.20;;
63016;SDS011;50274;45.640;11.756;2023-02-26T07:12:16;2.00;;;0.40;;
63016;SDS011;50274;45.640;11.756;2023-02-26T07:14:42;2.17;;;0.30;;
63016;SDS011;50274;45.640;11.756;2023-02-26T07:17:09;2.45;;;0.30;;
63016;SDS011;50274;45.640;11.756;2023-02-26T07:19:44;1.48;;;0.20;;
63016;SDS011;50274;45.640;11.756;2023-02-26T07:22:14;1.35;;;0.20;;
63016;SDS011;50274;45.640;11.756;2023-02-26T07:24:40;1.00;;;0.20;;
63016;SDS011;50274;45.640;11.756;2023-02-26T07:27:07;0.75;;;0.10;;
63016;SDS011;50274;45.640;11.756;2023-02-26T07:29:33;4.97;;;0.30;;
63016;SDS011;50274;45.640;11.756;2023-02-26T07:31:59;2.05;;;0.20;;
63016;SDS011;50274;45.640;11.756;2023-02-26T07:34:25;1.63;;;0.20;;
63016;SDS011;50274;45.640;11.756;2023-02-26T07:36:51;2.17;;;0.30;;
63016;SDS011;50274;45.640;11.756;2023-02-26T07:39:17;1.50;;;0.20;;
63016;SDS011;50274;45.640;11.756;2023-02-26T07:41:43;1.10;;;0.20;;
63016;SDS011;50274;45.640;11.756;2023-02-26T07:44:09;2.50;;;0.30;;
63016;SDS011;50274;45.640;11.756;2023-02-26T07:46:34;2.17;;;0.30;;
63016;SDS011;50274;45.640;11.756;2023-02-26T07:49:00;2.37;;;0.30;;
63016;SDS011;50274;45.640;11.756;2023-02-26T07:51:26;3.17;;;0.43;;
63016;SDS011;50274;45.640;11.756;2023-02-26T07:53:52;3.47;;;0.70;;
63016;SDS011;50274;45.640;11.756;2023-02-26T07:56:18;4.63;;;1.45;;
63016;SDS011;50274;45.640;11.756;2023-02-26T07:58:44;4.10;;;1.50;;
63016;SDS011;50274;45.640;11.756;2023-02-26T08:01:10;4.17;;;1.50;;
63016;SDS011;50274;45.640;11.756;2023-02-26T08:03:35;3.70;;;1.20;;
63016;SDS011;50274;45.640;11.756;2023-02-26T08:06:01;3.67;;;1.10;;
63016;SDS011;50274;45.640;11.756;2023-02-26T08:08:29;3.53;;;0.80;;
63016;SDS011;50274;45.640;11.756;2023-02-26T08:10:58;6.03;;;0.90;;
63016;SDS011;50274;45.640;11.756;2023-02-26T08:13:24;3.20;;;0.70;;
63016;SDS011;50274;45.640;11.756;2023-02-26T08:15:50;3.35;;;0.73;;
63016;SDS011;50274;45.640;11.756;2023-02-26T08:18:15;3.20;;;0.70;;
63016;SDS011;50274;45.640;11.756;2023-02-26T08:20:41;3.30;;;0.65;;
63016;SDS011;50274;45.640;11.756;2023-02-26T08:23:07;2.78;;;0.50;;
63016;SDS011;50274;45.640;11.756;2023-02-26T08:25:33;3.20;;;0.83;;
63016;SDS011;50274;45.640;11.756;2023-02-26T08:27:59;3.75;;;1.23;;
63016;SDS011;50274;45.640;11.756;2023-02-26T08:30:25;4.15;;;1.10;;
63016;SDS011;50274;45.640;11.756;2023-02-26T08:32:52;6.30;;;1.03;;
63016;SDS011;50274;45.640;11.756;2023-02-26T08:35:18;3.85;;;0.95;;
63016;SDS011;50274;45.640;11.756;2023-02-26T08:37:43;2.80;;;0.60;;
63016;SDS011;50274;45.640;11.756;2023-02-26T08:40:10;3.10;;;0.70;;
63016;SDS011;50274;45.640;11.756;2023-02-26T08:42:36;1.73;;;0.40;;
63016;SDS011;50274;45.640;11.756;2023-02-26T08:45:02;2.87;;;0.60;;
63016;SDS011;50274;45.640;11.756;2023-02-26T08:47:28;3.08;;;0.57;;
63016;SDS011;50274;45.640;11.756;2023-02-26T08:49:53;3.15;;;0.40;;
63016;SDS011;50274;45.640;11.756;2023-02-26T08:52:20;3.30;;;0.60;;
63016;SDS011;50274;45.640;11.756;2023-02-26T08:54:46;3.30;;;0.50;;
63016;SDS011;50274;45.640;11.756;2023-02-26T08:57:11;2.75;;;0.60;;
63016;SDS011;50274;45.640;11.756;2023-02-26T08:59:37;2.53;;;0.40;;
63016;SDS011;50274;45.640;11.756;2023-02-26T09:02:03;2.50;;;0.40;;
63016;SDS011;50274;45.640;11.756;2023-02-26T09:04:29;2.60;;;0.60;;
63016;SDS011;50274;45.640;11.756;2023-02-26T09:06:54;3.27;;;0.60;;
63016;SDS011;50274;45.640;11.756;2023-02-26T09:09:20;9.32;;;0.70;;
63016;SDS011;50274;45.640;11.756;2023-02-26T09:11:46;2.10;;;0.33;;
63016;SDS011;50274;45.640;11.756;2023-02-26T09:14:12;4.28;;;0.50;;
63016;SDS011;50274;45.640;11.756;2023-02-26T09:16:38;3.63;;;0.40;;
63016;SDS011;50274;45.640;11.756;2023-02-26T09:19:05;2.25;;;0.30;;
63016;SDS011;50274;45.640;11.756;2023-02-26T09:21:31;2.13;;;0.40;;
63016;SDS011;50274;45.640;11.756;2023-02-26T09:23:57;2.67;;;0.40;;
63016;SDS011;50274;45.640;11.756;2023-02-26T09:26:23;2.00;;;0.40;;
63016;SDS011;50274;45.640;11.756;2023-02-26T09:28:49;2.40;;;0.30;;
63016;SDS011;50274;45.640;11.756;2023-02-26T09:31:15;1.97;;;0.40;;
63016;SDS011;50274;45.640;11.756;2023-02-26T09:33:41;2.78;;;0.30;;
63016;SDS011;50274;45.640;11.756;2023-02-26T09:36:07;4.25;;;0.50;;
63016;SDS011;50274;45.640;11.756;2023-02-26T09:38:34;3.50;;;0.40;;
63016;SDS011;50274;45.640;11.756;2023-02-26T09:41:07;3.70;;;0.40;;
63016;SDS011;50274;45.640;11.756;2023-02-26T09:51:43;2.40;;;0.47;;
63016;SDS011;50274;45.640;11.756;2023-02-26T09:54:18;5.73;;;0.57;;
63016;SDS011;50274;45.640;11.756;2023-02-26T09:56:50;2.25;;;0.40;;
63016;SDS011;50274;45.640;11.756;2023-02-26T09:59:17;4.53;;;0.57;;
63016;SDS011;50274;45.640;11.756;2023-02-26T10:01:45;2.45;;;0.40;;
63016;SDS011;50274;45.640;11.756;2023-02-26T10:10:16;2.22;;;0.40;;
63016;SDS011;50274;45.640;11.756;2023-02-26T10:12:44;3.00;;;0.28;;
63016;SDS011;50274;45.640;11.756;2023-02-26T10:15:22;2.58;;;0.38;;
63016;SDS011;50274;45.640;11.756;2023-02-26T10:18:05;1.90;;;0.20;;
63016;SDS011;50274;45.640;11.756;2023-02-26T10:20:38;1.73;;;0.20;;
63016;SDS011;50274;45.640;11.756;2023-02-26T10:23:22;2.70;;;0.30;;
63016;SDS011;50274;45.640;11.756;2023-02-26T10:26:17;3.22;;;0.30;;
63016;SDS011;50274;45.640;11.756;2023-02-26T10:31:35;2.38;;;0.38;;
63016;SDS011;50274;45.640;11.756;2023-02-26T10:34:24;2.40;;;0.40;;
63016;SDS011;50274;45.640;11.756;2023-02-26T10:36:58;1.88;;;0.30;;
63016;SDS011;50274;45.640;11.756;2023-02-26T10:42:23;2.25;;;0.40;;
63016;SDS011;50274;45.640;11.756;2023-02-26T10:50:45;3.38;;;0.60;;
63016;SDS011;50274;45.640;11.756;2023-02-26T10:53:22;3.03;;;0.57;;
63016;SDS011;50274;45.640;11.756;2023-02-26T10:58:19;1.80;;;0.30;;
63016;SDS011;50274;45.640;11.756;2023-02-26T11:00:51;2.75;;;0.60;;
63016;SDS011;50274;45.640;11.756;2023-02-26T11:03:20;2.75;;;0.50;;
63016;SDS011;50274;45.640;11.756;2023-02-26T11:05:57;2.63;;;0.40;;
63016;SDS011;50274;45.640;11.756;2023-02-26T11:08:27;3.10;;;0.60;;
63016;SDS011;50274;45.640;11.756;2023-02-26T11:10:58;3.50;;;0.80;;
63016;SDS011;50274;45.640;11.756;2023-02-26T11:13:27;5.82;;;0.80;;
63016;SDS011;50274;45.640;11.756;2023-02-26T11:15:55;2.80;;;0.57;;
63016;SDS011;50274;45.640;11.756;2023-02-26T11:18:27;2.78;;;0.60;;
63016;SDS011;50274;45.640;11.756;2023-02-26T11:20:57;3.25;;;0.70;;
63016;SDS011;50274;45.640;11.756;2023-02-26T11:23:26;2.23;;;0.40;;
63016;SDS011;50274;45.640;11.756;2023-02-26T11:26:08;4.10;;;0.82;;
63016;SDS011;50274;45.640;11.756;2023-02-26T11:28:43;4.47;;;0.80;;
63016;SDS011;50274;45.640;11.756;2023-02-26T11:31:17;3.20;;;0.68;;
63016;SDS011;50274;45.640;11.756;2023-02-26T11:34:03;3.72;;;0.90;;
63016;SDS011;50274;45.640;11.756;2023-02-26T11:36:33;3.37;;;0.80;;
63016;SDS011;50274;45.640;11.756;2023-02-26T11:41:39;3.85;;;1.02;;
63016;SDS011;50274;45.640;11.756;2023-02-26T11:44:07;4.38;;;1.20;;
63016;SDS011;50274;45.640;11.756;2023-02-26T11:46:41;3.65;;;0.85;;
63016;SDS011;50274;45.640;11.756;2023-02-26T11:49:14;4.83;;;1.07;;
63016;SDS011;50274;45.640;11.756;2023-02-26T11:51:42;7.15;;;1.10;;
63016;SDS011;50274;45.640;11.756;2023-02-26T11:54:21;2.50;;;0.65;;
63016;SDS011;50274;45.640;11.756;2023-02-26T11:56:48;5.05;;;0.93;;
63016;SDS011;50274;45.640;11.756;2023-02-26T12:01:48;3.40;;;0.70;;
63016;SDS011;50274;45.640;11.756;2023-02-26T12:04:17;5.35;;;1.00;;
63016;SDS011;50274;45.640;11.756;2023-02-26T12:06:49;4.05;;;1.00;;
63016;SDS011;50274;45.640;11.756;2023-02-26T12:09:17;4.38;;;1.20;;
63016;SDS011;50274;45.640;11.756;2023-02-26T12:17:50;3.10;;;0.77;;
63016;SDS011;50274;45.640;11.756;2023-02-26T12:20:41;3.90;;;1.15;;
63016;SDS011;50274;45.640;11.756;2023-02-26T12:23:17;4.05;;;0.80;;
63016;SDS011;50274;45.640;11.756;2023-02-26T12:26:12;3.83;;;0.93;;
63016;SDS011;50274;45.640;11.756;2023-02-26T12:31:54;3.58;;;0.88;;
63016;SDS011;50274;45.640;11.756;2023-02-26T12:51:43;3.50;;;0.80;;
63016;SDS011;50274;45.640;11.756;2023-02-26T13:08:40;4.78;;;0.80;;
63016;SDS011;50274;45.640;11.756;2023-02-26T13:14:54;3.45;;;0.90;;
63016;SDS011;50274;45.640;11.756;2023-02-26T13:20:21;4.20;;;1.15;;
63016;SDS011;50274;45.640;11.756;2023-02-26T13:22:50;5.40;;;1.40;;
63016;SDS011;50274;45.640;11.756;2023-02-26T13:31:11;3.15;;;0.82;;
63016;SDS011;50274;45.640;11.756;2023-02-26T13:33:41;3.40;;;0.90;;
63016;SDS011;50274;45.640;11.756;2023-02-26T13:36:08;7.18;;;2.55;;
63016;SDS011;50274;45.640;11.756;2023-02-26T13:41:51;3.50;;;0.77;;
63016;SDS011;50274;45.640;11.756;2023-02-26T13:53:03;3.30;;;0.80;;
63016;SDS011;50274;45.640;11.756;2023-02-26T13:55:52;3.45;;;0.90;;
63016;SDS011;50274;45.640;11.756;2023-02-26T14:06:38;5.60;;;1.87;;
63016;SDS011;50274;45.640;11.756;2023-02-26T14:14:26;4.82;;;1.48;;
63016;SDS011;50274;45.640;11.756;2023-02-26T14:24:57;5.45;;;1.30;;
63016;SDS011;50274;45.640;11.756;2023-02-26T14:27:37;5.70;;;1.63;;
63016;SDS011;50274;45.640;11.756;2023-02-26T14:38:02;4.28;;;1.20;;
63016;SDS011;50274;45.640;11.756;2023-02-26T14:40:35;4.57;;;1.13;;
63016;SDS011;50274;45.640;11.756;2023-02-26T14:43:21;5.45;;;1.70;;
63016;SDS011;50274;45.640;11.756;2023-02-26T14:46:01;3.63;;;0.90;;
63016;SDS011;50274;45.640;11.756;2023-02-26T14:48:28;4.20;;;1.00;;
63016;SDS011;50274;45.640;11.756;2023-02-26T14:51:04;4.78;;;1.30;;
63016;SDS011;50274;45.640;11.756;2023-02-26T14:56:47;5.35;;;1.15;;
63016;SDS011;50274;45.640;11.756;2023-02-26T15:15:17;3.65;;;0.75;;
63016;SDS011;50274;45.640;11.756;2023-02-26T15:23:55;4.70;;;1.33;;
63016;SDS011;50274;45.640;11.756;2023-02-26T15:28:54;6.15;;;2.30;;
63016;SDS011;50274;45.640;11.756;2023-02-26T15:34:21;7.43;;;1.83;;
63016;SDS011;50274;45.640;11.756;2023-02-26T15:36:49;8.30;;;2.50;;
63016;SDS011;50274;45.640;11.756;2023-02-26T15:39:22;23.73;;;10.93;;
63016;SDS011;50274;45.640;11.756;2023-02-26T15:41:49;16.42;;;7.53;;
63016;SDS011;50274;45.640;11.756;2023-02-26T15:44:39;5.28;;;2.05;;
63016;SDS011;50274;45.640;11.756;2023-02-26T15:47:08;5.10;;;1.50;;
63016;SDS011;50274;45.640;11.756;2023-02-26T15:49:36;4.63;;;1.52;;
63016;SDS011;50274;45.640;11.756;2023-02-26T15:52:05;7.47;;;2.00;;
63016;SDS011;50274;45.640;11.756;2023-02-26T15:54:33;7.85;;;2.00;;
63016;SDS011;50274;45.640;11.756;2023-02-26T15:57:21;7.22;;;2.70;;
63016;SDS011;50274;45.640;11.756;2023-02-26T16:00:06;3.67;;;0.97;;
63016;SDS011;50274;45.640;11.756;2023-02-26T16:03:11;4.68;;;1.60;;
63016;SDS011;50274;45.640;11.756;2023-02-26T16:05:42;6.65;;;2.25;;
63016;SDS011;50274;45.640;11.756;2023-02-26T16:08:24;4.35;;;1.20;;
63016;SDS011;50274;45.640;11.756;2023-02-26T16:10:54;3.92;;;1.10;;
63016;SDS011;50274;45.640;11.756;2023-02-26T16:13:34;3.97;;;1.30;;
63016;SDS011;50274;45.640;11.756;2023-02-26T16:31:10;3.80;;;0.93;;
63016;SDS011;50274;45.640;11.756;2023-02-26T16:34:02;3.72;;;1.02;;
63016;SDS011;50274;45.640;11.756;2023-02-26T16:39:25;5.72;;;2.00;;
63016;SDS011;50274;45.640;11.756;2023-02-26T16:51:02;4.90;;;1.08;;
63016;SDS011;50274;45.640;11.756;2023-02-26T16:53:41;5.22;;;1.42;;
63016;SDS011;50274;45.640;11.756;2023-02-26T16:56:33;7.07;;;1.30;;
63016;SDS011;50274;45.640;11.756;2023-02-26T17:02:02;5.15;;;2.10;;
63016;SDS011;50274;45.640;11.756;2023-02-26T17:04:45;5.85;;;2.00;;
63016;SDS011;50274;45.640;11.756;2023-02-26T17:07:36;7.00;;;2.38;;
63016;SDS011;50274;45.640;11.756;2023-02-26T17:10:32;8.03;;;2.23;;
63016;SDS011;50274;45.640;11.756;2023-02-26T17:13:34;7.30;;;2.63;;
63016;SDS011;50274;45.640;11.756;2023-02-26T17:18:53;4.65;;;1.63;;
63016;SDS011;50274;45.640;11.756;2023-02-26T17:21:30;3.85;;;1.23;;
63016;SDS011;50274;45.640;11.756;2023-02-26T17:24:12;6.43;;;1.70;;
63016;SDS011;50274;45.640;11.756;2023-02-26T17:27:16;4.47;;;1.50;;
63016;SDS011;50274;45.640;11.756;2023-02-26T17:30:22;4.20;;;1.55;;
63016;SDS011;50274;45.640;11.756;2023-02-26T17:32:53;5.85;;;1.63;;
63016;SDS011;50274;45.640;11.756;2023-02-26T17:35:35;7.63;;;2.20;;
63016;SDS011;50274;45.640;11.756;2023-02-26T17:41:05;7.55;;;2.28;;
63016;SDS011;50274;45.640;11.756;2023-02-26T17:44:38;4.80;;;1.25;;
63016;SDS011;50274;45.640;11.756;2023-02-26T17:47:46;4.22;;;1.17;;
63016;SDS011;50274;45.640;11.756;2023-02-26T17:50:19;4.35;;;1.42;;
63016;SDS011;50274;45.640;11.756;2023-02-26T17:52:57;4.27;;;1.27;;
63016;SDS011;50274;45.640;11.756;2023-02-26T17:55:31;4.53;;;1.00;;
63016;SDS011;50274;45.640;11.756;2023-02-26T17:58:00;4.55;;;1.20;;
63016;SDS011;50274;45.640;11.756;2023-02-26T18:00:32;4.07;;;1.38;;
63016;SDS011;50274;45.640;11.756;2023-02-26T18:03:17;4.47;;;1.65;;
63016;SDS011;50274;45.640;11.756;2023-02-26T18:05:51;6.60;;;2.27;;
63016;SDS011;50274;45.640;11.756;2023-02-26T18:08:32;5.38;;;1.90;;
63016;SDS011;50274;45.640;11.756;2023-02-26T18:11:11;5.75;;;2.47;;
63016;SDS011;50274;45.640;11.756;2023-02-26T18:13:52;5.63;;;1.98;;
63016;SDS011;50274;45.640;11.756;2023-02-26T18:16:41;6.15;;;2.97;;
63016;SDS011;50274;45.640;11.756;2023-02-26T18:19:11;6.33;;;2.40;;
63016;SDS011;50274;45.640;11.756;2023-02-26T18:27:51;5.97;;;2.85;;
63016;SDS011;50274;45.640;11.756;2023-02-26T18:44:49;6.32;;;2.25;;
63016;SDS011;50274;45.640;11.756;2023-02-26T18:47:49;7.07;;;2.47;;
63016;SDS011;50274;45.640;11.756;2023-02-26T18:50:42;7.40;;;2.87;;
63016;SDS011;50274;45.640;11.756;2023-02-26T18:53:33;9.80;;;3.30;;
63016;SDS011;50274;45.640;11.756;2023-02-26T18:56:05;6.72;;;2.80;;
63016;SDS011;50274;45.640;11.756;2023-02-26T18:59:23;6.90;;;2.78;;
63016;SDS011;50274;45.640;11.756;2023-02-26T19:02:41;6.95;;;2.63;;
63016;SDS011;50274;45.640;11.756;2023-02-26T19:05:43;6.70;;;2.37;;
63016;SDS011;50274;45.640;11.756;2023-02-26T19:08:47;6.10;;;2.40;;
63016;SDS011;50274;45.640;11.756;2023-02-26T19:22:13;7.70;;;3.20;;
63016;SDS011;50274;45.640;11.756;2023-02-26T19:30:21;6.93;;;2.80;;
63016;SDS011;50274;45.640;11.756;2023-02-26T19:46:15;6.05;;;2.30;;
63016;SDS011;50274;45.640;11.756;2023-02-26T19:49:28;5.55;;;2.22;;
63016;SDS011;50274;45.640;11.756;2023-02-26T19:52:37;5.47;;;1.80;;
63016;SDS011;50274;45.640;11.756;2023-02-26T19:55:43;5.63;;;2.15;;
63016;SDS011;50274;45.640;11.756;2023-02-26T19:58:36;6.25;;;2.08;;
63016;SDS011;50274;45.640;11.756;2023-02-26T20:04:58;4.90;;;1.77;;
63016;SDS011;50274;45.640;11.756;2023-02-26T20:07:51;5.87;;;2.00;;
63016;SDS011;50274;45.640;11.756;2023-02-26T20:10:26;5.50;;;1.92;;
63016;SDS011;50274;45.640;11.756;2023-02-26T20:13:41;5.45;;;1.92;;
63016;SDS011;50274;45.640;11.756;2023-02-26T20:16:46;7.00;;;2.28;;